createdAt,value
2019-03-23T00:00:29.782Z,47.00
2019-03-23T00:10:33.028Z,47.30
2019-03-23T00:20:35.690Z,47.60
2019-03-23T00:30:38.696Z,47.90
2019-03-23T00:40:41.385Z,48.10
2019-03-23T00:50:43.894Z,48.20
2019-03-23T01:00:47.634Z,48.80
2019-03-23T01:10:50.288Z,49.40
2019-03-23T01:20:53.051Z,49.70
2019-03-23T01:30:55.564Z,50.70
2019-03-23T01:40:58.146Z,52.30
2019-03-23T01:51:01.179Z,53.80
2019-03-23T02:01:04.357Z,55.10
2019-03-23T02:11:06.364Z,57.00
2019-03-23T02:21:09.170Z,62.50
2019-03-23T02:31:11.856Z,60.70
2019-03-23T02:41:14.829Z,63.00
2019-03-23T02:51:17.319Z,63.10
2019-03-23T03:01:19.978Z,64.90
2019-03-23T03:11:22.794Z,66.10
2019-03-23T03:21:25.302Z,67.00
2019-03-23T03:31:27.757Z,67.40
2019-03-23T03:41:30.699Z,67.80
2019-03-23T03:51:33.827Z,68.20
2019-03-23T04:01:35.697Z,68.90
2019-03-23T04:11:38.787Z,70.80
2019-03-23T04:21:40.588Z,68.50
2019-03-23T04:31:43.244Z,71.30
2019-03-23T04:41:45.737Z,68.30
2019-03-23T04:51:48.387Z,68.10
2019-03-23T05:01:53.024Z,67.80
2019-03-23T05:11:55.769Z,67.50
2019-03-23T05:21:58.271Z,67.00
2019-03-23T05:32:00.851Z,66.00
2019-03-23T05:42:03.621Z,65.20
2019-03-23T05:52:06.327Z,64.80
2019-03-23T06:02:09.220Z,64.40
2019-03-23T06:12:11.901Z,63.80
2019-03-23T06:22:14.844Z,63.30
2019-03-23T06:32:17.724Z,63.50
2019-03-23T06:42:20.280Z,63.10
2019-03-23T06:52:23.197Z,62.30
2019-03-23T07:02:25.684Z,61.60
2019-03-23T07:12:30.542Z,61.40
2019-03-23T07:22:33.270Z,60.60
2019-03-23T07:32:37.442Z,60.50
2019-03-23T07:42:40.959Z,59.50
2019-03-23T07:52:43.466Z,59.00
2019-03-23T08:02:47.159Z,58.40
2019-03-23T08:12:49.654Z,57.70
2019-03-23T08:22:52.894Z,57.80
2019-03-23T08:32:55.859Z,56.90
2019-03-23T08:42:58.870Z,56.50
2019-03-23T08:53:01.453Z,56.30
2019-03-23T09:03:04.551Z,55.60
2019-03-23T09:13:06.243Z,55.70
2019-03-23T09:23:09.354Z,55.40
2019-03-23T09:33:11.053Z,54.30
2019-03-23T09:43:13.864Z,54.50
2019-03-23T09:53:17.109Z,54.50
2019-03-23T10:03:20.238Z,54.60
2019-03-23T10:13:25.162Z,54.60
2019-03-23T10:23:27.914Z,54.70
2019-03-23T10:33:31.827Z,54.50
2019-03-23T10:43:34.655Z,52.40
2019-03-23T10:53:37.383Z,50.00
2019-03-23T11:03:43.318Z,49.50
2019-03-23T11:13:45.851Z,49.60
2019-03-23T11:23:48.336Z,48.30
2019-03-23T11:33:51.140Z,47.10
2019-03-23T11:43:52.793Z,46.10
2019-03-23T11:53:55.337Z,44.00
2019-03-23T12:03:58.077Z,44.80
2019-03-23T12:14:01.119Z,44.40
2019-03-23T12:24:05.312Z,44.90
2019-03-23T12:34:08.266Z,45.20
2019-03-23T12:44:11.267Z,44.00
2019-03-23T12:54:13.802Z,44.60
2019-03-23T13:04:16.337Z,45.90
2019-03-23T13:14:19.207Z,46.50
2019-03-23T13:24:26.837Z,46.70
2019-03-23T13:34:29.875Z,46.90
2019-03-23T13:44:32.675Z,47.10
2019-03-23T13:54:34.344Z,46.80
2019-03-23T14:04:37.426Z,46.90
2019-03-23T14:14:41.089Z,46.40
2019-03-23T14:24:45.996Z,46.60
2019-03-23T14:34:48.669Z,47.40
2019-03-23T14:44:50.713Z,47.80
2019-03-23T14:54:53.587Z,49.40
2019-03-23T15:04:55.273Z,49.60
2019-03-23T15:14:57.972Z,51.90
2019-03-23T15:25:02.749Z,51.00
2019-03-23T15:35:05.678Z,51.90
2019-03-23T15:45:08.925Z,51.80
2019-03-23T15:55:11.899Z,52.30
2019-03-23T16:05:14.436Z,52.70
2019-03-23T16:15:36.107Z,53.30
2019-03-23T16:25:38.830Z,53.90
2019-03-23T16:35:41.689Z,54.50
2019-03-23T16:45:44.314Z,55.00
2019-03-23T16:55:47.015Z,55.50
2019-03-23T17:05:49.886Z,56.10
2019-03-23T17:15:53.422Z,56.50
2019-03-23T17:25:56.464Z,57.10
2019-03-23T17:35:58.526Z,57.90
2019-03-23T17:46:01.304Z,60.40
2019-03-23T17:56:06.398Z,58.80
2019-03-23T18:06:10.957Z,59.50
2019-03-23T18:16:13.705Z,59.80
2019-03-23T18:26:17.048Z,60.30
2019-03-23T18:36:19.527Z,60.60
2019-03-23T18:46:24.545Z,61.20
2019-03-23T18:56:27.592Z,61.50
2019-03-23T19:06:32.019Z,62.90
2019-03-23T19:16:34.949Z,64.00
2019-03-23T19:26:37.643Z,65.00
2019-03-23T19:36:41.283Z,66.40
2019-03-23T19:46:45.033Z,66.90
2019-03-23T19:56:47.619Z,67.60
2019-03-23T20:06:50.702Z,70.00
2019-03-23T20:16:52.686Z,70.60
2019-03-23T20:26:55.222Z,73.40
2019-03-23T20:36:57.929Z,70.30
2019-03-23T20:47:00.798Z,69.80
2019-03-23T20:57:03.967Z,69.30
2019-03-23T21:17:20.655Z,68.90
2019-03-23T21:27:23.155Z,68.20
2019-03-23T21:37:25.652Z,68.50
2019-03-23T21:47:28.439Z,68.20
2019-03-23T21:57:31.891Z,68.60
2019-03-23T22:07:34.414Z,68.30
2019-03-23T22:17:37.082Z,68.00
2019-03-23T22:27:39.648Z,68.10
2019-03-23T22:37:42.146Z,68.00
2019-03-23T22:47:44.840Z,67.90
2019-03-23T22:57:47.819Z,67.40
2019-03-23T23:07:49.831Z,65.90
2019-03-23T23:17:52.402Z,66.10
2019-03-23T23:27:54.895Z,64.80
2019-03-23T23:37:58.030Z,64.50
2019-03-23T23:48:01.170Z,64.10
2019-03-23T23:58:03.770Z,63.80
